Time;durP1;ratioP1;P1;durP2;ratioP2;P2;SDS_P1;SDS_P2;PMS_P1;PMS_P2;Temp;Humidity;BMP_temperature;BMP_pressure;BME280_temperature;BME280_humidity;BME280_pressure;Samples;Min_cycle;Max_cycle;Signal;HPM_P1;HPM_P2
2021/03/25 00:02:07;;;;;;;7.40;3.88;;;;;;;1.41;83.26;100423.47;5071229;28;20025;-70
2021/03/25 00:04:32;;;;;;;4.93;2.47;;;;;;;1.54;83.92;100415.34;5071139;28;20108;-71
2021/03/25 00:07:00;;;;;;;4.05;3.00;;;;;;;1.48;83.52;100427.78;5071003;28;20486;-71
2021/03/25 00:09:33;;;;;;;4.88;2.83;;;;;;;1.51;83.47;100401.09;5071142;28;20082;-71
2021/03/25 00:11:59;;;;;;;4.57;2.60;;;;;;;1.51;83.91;100418.66;5069523;28;20078;-70
2021/03/25 00:14:25;;;;;;;5.07;2.78;;;;;;;1.49;83.97;100406.91;5069474;28;20055;-71
2021/03/25 00:16:52;;;;;;;3.88;2.40;;;;;;;1.73;83.17;100408.13;5069604;28;20059;-71
2021/03/25 00:19:19;;;;;;;4.78;2.63;;;;;;;1.55;82.71;100407.00;5070903;28;20080;-70
2021/03/25 00:21:44;;;;;;;4.97;2.88;;;;;;;1.57;83.90;100403.72;5069458;28;20028;-70
2021/03/25 00:24:16;;;;;;;5.20;3.10;;;;;;;1.55;84.30;100385.31;5071126;28;20040;-71
2021/03/25 00:26:42;;;;;;;4.65;3.15;;;;;;;1.62;83.89;100388.75;5111194;28;20105;-70
2021/03/25 00:29:12;;;;;;;6.03;3.60;;;;;;;1.47;83.50;100388.50;5111028;28;20028;-75
2021/03/25 00:31:43;;;;;;;4.38;2.78;;;;;;;1.38;83.07;100386.72;5093109;28;20034;-70
2021/03/25 00:34:09;;;;;;;11.95;4.85;;;;;;;1.44;82.29;100380.97;5111120;28;20030;-70
2021/03/25 00:36:35;;;;;;;10.38;4.78;;;;;;;1.24;81.82;100363.13;5092912;28;20036;-71
2021/03/25 00:39:01;;;;;;;9.30;5.25;;;;;;;1.58;80.34;100384.53;5111167;28;20051;-71
2021/03/25 00:41:27;;;;;;;13.13;6.40;;;;;;;1.64;78.83;100385.44;5092760;28;20109;-71
2021/03/25 00:43:54;;;;;;;17.98;7.30;;;;;;;1.88;76.93;100381.59;5111348;28;20110;-71
2021/03/25 00:46:21;;;;;;;15.10;6.78;;;;;;;1.81;77.78;100380.66;5092632;28;20450;-70
2021/03/25 00:48:49;;;;;;;14.02;7.05;;;;;;;1.64;77.27;100379.59;5092707;28;20024;-70
2021/03/25 00:51:15;;;;;;;10.43;5.70;;;;;;;1.72;76.21;100383.06;5111050;28;20043;-70
2021/03/25 00:53:41;;;;;;;13.52;6.47;;;;;;;1.80;76.33;100391.53;5111007;28;20024;-71
2021/03/25 00:56:07;;;;;;;8.43;5.07;;;;;;;1.55;77.71;100360.25;5111038;28;20087;-70
2021/03/25 00:58:36;;;;;;;7.03;3.53;;;;;;;1.61;78.40;100377.88;5093029;28;20484;-71
2021/03/25 01:01:05;;;;;;;6.53;4.00;;;;;;;1.55;77.56;100376.94;5110840;28;20104;-71
2021/03/25 01:03:30;;;;;;;6.05;4.03;;;;;;;1.70;77.60;100383.00;5092785;28;20381;-71
2021/03/25 01:05:56;;;;;;;7.18;4.50;;;;;;;1.42;77.65;100365.94;5114104;28;20022;-70
2021/03/25 01:08:31;;;;;;;7.00;4.47;;;;;;;1.51;78.06;100381.06;5096546;28;20028;-70
2021/03/25 01:11:09;;;;;;;7.85;4.95;;;;;;;1.77;76.74;100387.31;5115034;28;20032;-70
2021/03/25 01:13:52;;;;;;;5.15;3.08;;;;;;;1.84;76.14;100390.75;5115037;28;20020;-70
2021/03/25 01:16:30;;;;;;;5.28;2.83;;;;;;;1.67;76.63;100365.44;5096397;28;20028;-70
2021/03/25 01:18:59;;;;;;;4.35;2.72;;;;;;;1.82;76.82;100391.53;5096304;28;20076;-70
2021/03/25 01:21:28;;;;;;;4.45;2.72;;;;;;;1.94;75.90;100392.53;5096428;28;20064;-71
2021/03/25 01:23:55;;;;;;;7.38;3.65;;;;;;;2.00;76.77;100399.31;5096453;28;20115;-70
2021/03/25 01:26:21;;;;;;;7.80;4.50;;;;;;;2.14;75.76;100401.16;5114498;28;20052;-71
2021/03/25 01:28:48;;;;;;;15.60;7.05;;;;;;;2.00;77.36;100402.63;5114738;28;20035;-71
2021/03/25 01:31:14;;;;;;;7.30;3.90;;;;;;;2.10;77.12;100403.63;5096223;28;20080;-71
2021/03/25 01:33:40;;;;;;;4.22;2.60;;;;;;;1.52;77.25;100402.81;5114526;28;20019;-71
2021/03/25 01:36:09;;;;;;;7.18;4.20;;;;;;;1.87;77.38;100399.94;5096522;28;20023;-71
2021/03/25 01:38:35;;;;;;;6.72;4.07;;;;;;;1.89;76.84;100398.31;5114565;28;20149;-71
2021/03/25 01:41:05;;;;;;;5.57;3.70;;;;;;;1.73;78.10;100398.09;5114489;28;20099;-70
2021/03/25 01:43:42;;;;;;;6.55;3.97;;;;;;;1.64;77.89;100387.94;5114332;28;20095;-71
2021/03/25 01:46:28;;;;;;;6.95;4.10;;;;;;;1.98;77.36;100394.25;5113964;28;20051;-71
2021/03/25 01:48:59;;;;;;;5.93;3.85;;;;;;;1.49;77.95;100371.84;5095923;28;20039;-70
2021/03/25 01:51:43;;;;;;;6.15;4.03;;;;;;;1.82;76.50;100389.88;5095900;28;20032;-71
2021/03/25 01:54:27;;;;;;;7.20;4.32;;;;;;;2.06;76.42;100389.34;5114395;28;20036;-70
2021/03/25 01:57:18;;;;;;;8.70;4.72;;;;;;;1.94;76.34;100394.22;5113886;28;20122;-70
2021/03/25 01:59:59;;;;;;;14.48;8.07;;;;;;;2.04;75.50;100398.53;5113844;28;20084;-70
2021/03/25 02:02:54;;;;;;;7.38;4.88;;;;;;;1.81;76.69;100403.22;5113800;28;20516;-70
2021/03/25 02:05:31;;;;;;;6.75;4.35;;;;;;;1.86;77.17;100400.78;5106361;28;20194;-70
2021/03/25 02:08:08;;;;;;;5.78;4.53;;;;;;;1.70;78.09;100404.75;5095842;28;20027;-70
2021/03/25 02:10:46;;;;;;;8.00;4.65;;;;;;;1.87;77.30;100405.81;5113871;28;20046;-71
2021/03/25 02:13:26;;;;;;;10.35;6.05;;;;;;;1.74;78.08;100408.97;5113597;28;20055;-71
2021/03/25 02:15:57;;;;;;;11.38;6.45;;;;;;;1.84;77.69;100394.91;5094296;28;20032;-71
2021/03/25 02:18:28;;;;;;;9.65;5.50;;;;;;;1.76;77.36;100398.13;5113730;28;20508;-70
2021/03/25 02:21:09;;;;;;;14.43;6.75;;;;;;;1.57;78.59;100391.19;5095317;28;20036;-71
2021/03/25 02:23:47;;;;;;;14.35;7.30;;;;;;;1.86;78.03;100404.13;5095348;28;20503;-70
2021/03/25 02:26:36;;;;;;;13.80;6.90;;;;;;;1.70;77.67;100404.75;5113214;28;20082;-71
2021/03/25 02:29:33;;;;;;;11.93;6.78;;;;;;;1.37;78.44;100384.19;5113451;28;20019;-71
2021/03/25 02:32:08;;;;;;;9.27;5.57;;;;;;;1.54;77.88;100395.31;5095257;28;20023;-70
2021/03/25 02:34:39;;;;;;;8.13;5.10;;;;;;;1.63;78.63;100410.47;5095045;28;20126;-71
2021/03/25 02:37:16;;;;;;;5.13;3.47;;;;;;;1.61;78.05;100410.44;5113148;28;20028;-70
2021/03/25 02:40:00;;;;;;;10.40;4.43;;;;;;;1.61;77.06;100419.63;5113183;28;20036;-70
2021/03/25 02:43:01;;;;;;;6.50;4.07;;;;;;;1.69;77.67;100420.56;5113272;28;20023;-70
2021/03/25 02:46:00;;;;;;;6.68;4.28;;;;;;;1.70;77.64;100428.09;5081285;28;20493;-71
2021/03/25 02:48:28;;;;;;;6.80;4.70;;;;;;;1.75;77.79;100424.03;5095089;28;20568;-71
2021/03/25 02:51:12;;;;;;;7.88;4.78;;;;;;;1.96;76.16;100415.13;5112909;28;20038;-71
2021/03/25 02:53:44;;;;;;;6.13;4.25;;;;;;;1.81;77.21;100422.41;5112923;28;20059;-71
2021/03/25 02:56:42;;;;;;;7.40;5.50;;;;;;;1.92;77.83;100424.28;5112765;28;20381;-71
2021/03/25 02:59:15;;;;;;;7.93;5.50;;;;;;;1.82;78.63;100431.63;5112966;28;20461;-70
2021/03/25 03:01:46;;;;;;;7.68;5.95;;;;;;;1.52;79.03;100412.81;5113018;28;20107;-70
2021/03/25 03:04:27;;;;;;;7.43;5.95;;;;;;;1.58;79.28;100427.94;5094636;28;20027;-70
2021/03/25 03:07:02;;;;;;;7.35;5.72;;;;;;;1.67;79.42;100423.06;5112703;28;20106;-70
2021/03/25 03:09:35;;;;;;;7.40;5.60;;;;;;;1.86;79.36;100440.88;5094465;28;20031;-71
2021/03/25 03:12:08;;;;;;;8.68;6.20;;;;;;;1.81;78.45;100418.25;5112406;28;20015;-70
2021/03/25 03:14:46;;;;;;;9.05;6.20;;;;;;;2.01;78.60;100448.59;5094077;28;20432;-70
2021/03/25 03:17:17;;;;;;;8.55;5.60;;;;;;;1.50;79.02;100442.03;5112406;28;20063;-71
2021/03/25 03:19:54;;;;;;;8.88;5.90;;;;;;;1.74;79.89;100452.38;5094220;28;20488;-71
2021/03/25 03:22:20;;;;;;;8.20;5.65;;;;;;;1.99;78.47;100453.59;5093962;28;20488;-71
2021/03/25 03:24:50;;;;;;;10.70;7.10;;;;;;;1.86;78.56;100448.41;5112300;28;20100;-70
2021/03/25 03:27:32;;;;;;;10.18;6.45;;;;;;;2.01;78.83;100456.97;5094212;28;20067;-70
2021/03/25 03:30:01;;;;;;;10.25;7.45;;;;;;;1.82;79.45;100466.72;5112091;28;20051;-70
2021/03/25 03:32:41;;;;;;;8.30;5.90;;;;;;;1.70;79.57;100448.16;5112301;28;20391;-71
2021/03/25 03:35:17;;;;;;;9.10;6.10;;;;;;;1.74;79.74;100474.94;5094111;28;20024;-71
2021/03/25 03:37:46;;;;;;;7.75;5.40;;;;;;;1.61;80.73;100473.06;5112127;28;20032;-71
2021/03/25 03:40:20;;;;;;;7.22;5.05;;;;;;;1.78;80.70;100483.38;5093786;28;20039;-71
2021/03/25 03:42:46;;;;;;;6.82;4.80;;;;;;;1.65;80.79;100473.97;5093839;28;20024;-71
2021/03/25 03:45:18;;;;;;;7.88;5.57;;;;;;;1.40;81.55;100449.34;5093775;28;20114;-71
2021/03/25 03:47:45;;;;;;;6.30;4.47;;;;;;;1.75;80.85;100468.28;5111942;28;20028;-71
2021/03/25 03:50:35;;;;;;;7.35;5.00;;;;;;;1.91;80.71;100466.84;5093613;28;20044;-71
2021/03/25 03:53:02;;;;;;;7.00;4.95;;;;;;;1.75;81.34;100466.63;5112032;28;20023;-71
2021/03/25 03:55:29;;;;;;;9.48;5.97;;;;;;;1.67;81.26;100468.16;5111650;28;20035;-71
2021/03/25 03:58:34;;;;;;;9.05;5.65;;;;;;;1.82;81.46;100476.72;5093421;28;20031;-70
2021/03/25 04:01:08;;;;;;;9.68;6.45;;;;;;;1.62;81.88;100459.72;5099275;28;20051;-71
2021/03/25 04:03:45;;;;;;;9.48;5.97;;;;;;;1.58;81.76;100473.03;5111839;28;20016;-71
2021/03/25 04:06:15;;;;;;;10.52;7.03;;;;;;;1.75;81.13;100483.31;5111664;28;20031;-71
2021/03/25 04:09:00;;;;;;;10.75;6.97;;;;;;;1.71;81.36;100479.91;5111716;28;20023;-71
2021/03/25 04:11:34;;;;;;;9.73;6.50;;;;;;;1.81;80.93;100480.91;5093228;28;20089;-70
2021/03/25 04:14:10;;;;;;;8.77;6.03;;;;;;;1.96;80.54;100485.31;5111562;28;20084;-72
2021/03/25 04:16:41;;;;;;;8.50;5.65;;;;;;;2.16;79.62;100487.25;5093268;28;20051;-70
2021/03/25 04:19:13;;;;;;;13.90;8.45;;;;;;;2.44;80.30;100488.47;5111475;28;20047;-70
2021/03/25 04:21:54;;;;;;;9.18;6.43;;;;;;;1.87;80.08;100482.63;5092964;28;20028;-71
2021/03/25 04:24:27;;;;;;;9.07;5.70;;;;;;;2.03;80.89;100490.41;5092663;28;20466;-71
2021/03/25 04:27:17;;;;;;;7.55;5.25;;;;;;;2.20;79.00;100490.66;5111148;28;20039;-71
2021/03/25 04:29:55;;;;;;;11.32;7.40;;;;;;;2.19;79.66;100499.00;5111153;28;20028;-70
2021/03/25 04:32:21;;;;;;;10.23;6.60;;;;;;;2.47;78.65;100484.34;5111111;28;20066;-70
2021/03/25 04:34:49;;;;;;;8.88;5.97;;;;;;;2.26;78.50;100500.75;5110343;28;20031;-70
2021/03/25 04:37:16;;;;;;;9.13;5.80;;;;;;;1.96;79.59;100501.16;5091171;28;20028;-73
2021/03/25 04:39:43;;;;;;;9.48;6.47;;;;;;;2.05;80.01;100492.94;5090779;28;20411;-70
2021/03/25 04:42:10;;;;;;;11.13;7.45;;;;;;;2.25;78.39;100494.91;5110810;28;20024;-70
2021/03/25 04:45:03;;;;;;;12.80;8.23;;;;;;;2.27;78.79;100499.94;5110535;28;20015;-71
2021/03/25 04:47:35;;;;;;;12.00;7.90;;;;;;;2.50;78.16;100508.59;5110338;28;20385;-70
2021/03/25 04:50:13;;;;;;;18.38;9.90;;;;;;;2.40;77.61;100511.81;5111101;28;20381;-71
2021/03/25 04:52:39;;;;;;;21.02;10.55;;;;;;;2.82;83.64;100509.84;5093072;28;20064;-70
2021/03/25 04:55:27;;;;;;;26.60;12.30;;;;;;;4.12;81.05;100511.06;5092587;28;20458;-70
2021/03/25 04:57:59;;;;;;;41.38;21.45;;;;;;;3.64;77.05;100511.53;5110649;28;20043;-70
2021/03/25 05:00:32;;;;;;;39.95;20.75;;;;;;;3.28;78.59;100519.56;5110963;28;20361;-71
2021/03/25 05:03:04;;;;;;;35.13;20.50;;;;;;;2.81;76.15;100527.41;5110638;28;20070;-72
2021/03/25 05:05:32;;;;;;;46.83;25.67;;;;;;;2.31;77.72;100535.13;5110167;28;20024;-72
2021/03/25 05:08:09;;;;;;;25.67;16.20;;;;;;;2.37;77.95;100529.34;5092766;28;20027;-72
2021/03/25 05:10:46;;;;;;;14.65;10.63;;;;;;;2.56;76.30;100528.75;5110669;28;20016;-72
2021/03/25 05:13:33;;;;;;;28.35;18.52;;;;;;;3.18;77.16;100534.53;5109705;28;20119;-71
2021/03/25 05:16:21;;;;;;;54.65;27.05;;;;;;;3.20;79.08;100533.72;5098376;28;20036;-74
2021/03/25 05:18:58;;;;;;;27.00;16.17;;;;;;;3.33;77.92;100527.13;5071992;28;20481;-73
2021/03/25 05:21:47;;;;;;;29.15;18.83;;;;;;;3.36;78.39;100515.47;5072204;28;20483;-73
2021/03/25 05:24:42;;;;;;;29.38;17.98;;;;;;;3.58;78.38;100536.63;5089543;28;20032;-73
2021/03/25 05:27:35;;;;;;;25.98;17.65;;;;;;;3.53;76.61;100539.91;5048981;28;20045;-74
2021/03/25 05:30:06;;;;;;;21.70;14.15;;;;;;;3.28;75.62;100548.88;5041113;28;20029;-74
2021/03/25 05:32:37;;;;;;;34.95;18.75;;;;;;;3.73;74.96;100533.38;5029620;28;20030;-73
2021/03/25 05:35:09;;;;;;;24.48;15.68;;;;;;;3.87;73.44;100542.72;5029342;28;20033;-72
2021/03/25 05:37:45;;;;;;;14.38;10.70;;;;;;;4.76;71.81;100532.34;5029419;28;20042;-74
2021/03/25 05:40:26;;;;;;;14.73;9.40;;;;;;;4.19;72.00;100532.91;5029340;28;20021;-74
2021/03/25 05:43:24;;;;;;;14.60;10.20;;;;;;;4.45;73.03;100548.16;5045670;28;20087;-74
2021/03/25 05:46:00;;;;;;;13.90;9.50;;;;;;;4.36;71.67;100538.88;5028382;28;20525;-73
2021/03/25 05:48:55;;;;;;;10.93;6.65;;;;;;;4.47;70.80;100546.50;5030670;28;20045;-71
2021/03/25 05:51:36;;;;;;;13.90;8.00;;;;;;;4.50;68.57;100554.88;5031162;28;20441;-74
2021/03/25 05:54:41;;;;;;;26.30;11.65;;;;;;;4.59;67.91;100552.44;5034428;28;20040;-73
2021/03/25 05:57:45;;;;;;;8.75;5.95;;;;;;;4.58;67.20;100557.44;5034145;28;20495;-73
2021/03/25 06:00:10;;;;;;;9.27;6.35;;;;;;;4.53;67.90;100565.00;5019492;28;20045;-73
2021/03/25 06:02:52;;;;;;;9.55;6.50;;;;;;;4.87;67.40;100571.03;5068937;28;20020;-74
2021/03/25 06:05:18;;;;;;;6.78;5.13;;;;;;;4.49;68.31;100565.81;5068694;28;20580;-73
2021/03/25 06:07:48;;;;;;;8.10;5.35;;;;;;;4.64;68.63;100565.03;5066746;28;20028;-74
2021/03/25 06:10:33;;;;;;;8.98;6.22;;;;;;;5.60;64.21;100562.00;5068016;28;20032;-75
2021/03/25 06:13:31;;;;;;;9.05;5.07;;;;;;;4.58;68.62;100563.31;5068734;28;20094;-75
2021/03/25 06:16:35;;;;;;;5.85;3.92;;;;;;;4.93;67.55;100566.84;5069079;28;20367;-74
2021/03/25 06:19:27;;;;;;;9.13;5.20;;;;;;;4.47;69.15;100571.66;5069018;28;20054;-75
2021/03/25 06:22:01;;;;;;;5.50;3.90;;;;;;;4.51;67.87;100573.34;5059231;28;20052;-74
2021/03/25 06:24:47;;;;;;;9.48;4.13;;;;;;;4.59;69.25;100577.63;5071082;28;20393;-74
2021/03/25 06:27:44;;;;;;;8.68;4.50;;;;;;;5.17;65.05;100577.03;5091799;28;20122;-74
2021/03/25 06:30:17;;;;;;;7.53;4.78;;;;;;;5.25;65.43;100567.81;5090897;28;20115;-74
2021/03/25 06:33:12;;;;;;;5.05;3.13;;;;;;;5.09;65.36;100571.13;5091290;28;20034;-74
2021/03/25 06:36:08;;;;;;;9.35;5.80;;;;;;;5.42;64.13;100588.03;5049741;28;20098;-74
2021/03/25 06:38:40;;;;;;;7.20;4.22;;;;;;;4.67;67.10;100588.56;5067550;28;20040;-74
2021/03/25 06:41:47;;;;;;;11.88;8.57;;;;;;;4.94;65.99;100587.84;5050617;28;20502;-74
2021/03/25 06:44:22;;;;;;;6.97;4.03;;;;;;;4.98;64.09;100572.75;5058850;28;20039;-75
2021/03/25 06:46:54;;;;;;;11.38;5.55;;;;;;;5.20;62.87;100587.13;5049998;28;20077;-74
2021/03/25 06:49:51;;;;;;;7.75;3.85;;;;;;;4.86;65.04;100594.53;5067156;28;20516;-74
2021/03/25 06:52:30;;;;;;;9.10;5.57;;;;;;;4.76;66.87;100598.69;5048062;28;20078;-74
2021/03/25 06:55:11;;;;;;;5.00;3.30;;;;;;;4.37;66.60;100599.28;5049562;28;20029;-74
2021/03/25 06:57:46;;;;;;;11.80;5.10;;;;;;;4.41;67.25;100605.19;5049570;28;20516;-75
2021/03/25 07:00:16;;;;;;;8.90;4.75;;;;;;;4.38;67.25;100607.66;4702408;28;10000537;-74
2021/03/25 07:02:45;;;;;;;13.55;7.80;;;;;;;4.57;66.79;100591.03;5069467;28;20032;-74
2021/03/25 07:05:21;;;;;;;12.90;7.07;;;;;;;4.35;68.94;100605.13;5088102;28;20505;-74
2021/03/25 07:07:56;;;;;;;16.10;9.10;;;;;;;4.29;69.00;100595.03;5070102;28;20032;-74
2021/03/25 07:10:22;;;;;;;10.85;7.30;;;;;;;4.29;69.11;100612.66;5070214;28;20130;-74
2021/03/25 07:12:50;;;;;;;11.48;8.20;;;;;;;4.29;68.71;100612.66;5069325;28;20624;-74
2021/03/25 07:15:25;;;;;;;11.60;5.53;;;;;;;4.14;67.93;100598.25;5070340;28;20027;-74
2021/03/25 07:17:52;;;;;;;9.55;6.03;;;;;;;4.19;68.31;100631.88;5069660;28;20409;-74
2021/03/25 07:20:35;;;;;;;7.47;5.32;;;;;;;4.14;69.41;100632.66;5087749;28;20524;-74
2021/03/25 07:23:10;;;;;;;20.10;12.93;;;;;;;4.43;68.35;100618.63;5069948;28;20046;-75
2021/03/25 07:25:40;;;;;;;22.45;13.20;;;;;;;4.76;66.88;100607.91;5067265;28;20056;-74
2021/03/25 07:28:21;;;;;;;13.90;8.50;;;;;;;4.93;66.76;100601.28;5066411;28;20054;-74
2021/03/25 07:30:48;;;;;;;12.57;8.82;;;;;;;4.82;65.13;100608.78;5067733;28;20024;-74
2021/03/25 07:33:22;;;;;;;7.70;5.65;;;;;;;5.09;64.71;100615.66;5084826;28;20039;-75
2021/03/25 07:35:58;;;;;;;8.70;5.97;;;;;;;5.19;65.51;100614.81;5067193;28;20040;-74
2021/03/25 07:38:32;;;;;;;11.25;6.93;;;;;;;5.52;63.49;100593.94;5069457;28;20508;-74
2021/03/25 07:41:14;;;;;;;8.25;5.97;;;;;;;5.54;62.99;100632.59;5086561;28;20024;-75
2021/03/25 07:44:04;;;;;;;7.30;5.20;;;;;;;5.91;61.08;100622.63;5086488;28;20024;-76
2021/03/25 07:46:30;;;;;;;8.27;5.78;;;;;;;5.87;62.70;100633.56;5068578;28;20040;-76
2021/03/25 07:49:14;;;;;;;12.18;7.88;;;;;;;6.31;59.95;100636.09;5067329;28;20024;-74
2021/03/25 07:51:56;;;;;;;7.85;5.43;;;;;;;6.98;56.34;100621.66;5067370;28;20947;-76
2021/03/25 07:54:54;;;;;;;8.70;6.20;;;;;;;6.37;56.78;100625.16;5067792;28;20582;-75
2021/03/25 07:57:25;;;;;;;44.47;20.50;;;;;;;6.00;61.55;100624.31;5065858;28;20036;-76
2021/03/25 07:59:58;;;;;;;14.40;10.07;;;;;;;5.85;61.85;100629.34;5084118;28;20519;-75
2021/03/25 08:02:29;;;;;;;12.48;8.77;;;;;;;5.53;62.14;100635.94;5066912;28;20024;-75
2021/03/25 08:04:57;;;;;;;9.95;6.78;;;;;;;5.57;61.07;100622.50;5065045;28;20035;-76
2021/03/25 08:07:24;;;;;;;10.20;6.72;;;;;;;6.00;59.81;100609.19;5048776;28;20056;-77
2021/03/25 08:09:57;;;;;;;12.70;7.55;;;;;;;6.78;58.22;100619.19;5065955;28;20036;-75
2021/03/25 08:12:28;;;;;;;29.20;13.13;;;;;;;6.41;59.29;100626.84;5064775;28;20051;-75
2021/03/25 08:15:38;;;;;;;11.67;7.80;;;;;;;6.31;57.72;100638.63;5065230;28;20056;-76
2021/03/25 08:18:11;;;;;;;56.80;20.65;;;;;;;6.92;56.10;100632.66;5057016;28;20290;-75
2021/03/25 08:21:02;;;;;;;9.77;6.43;;;;;;;7.41;55.58;100632.44;5048160;28;21043;-76
2021/03/25 08:23:29;;;;;;;10.07;6.57;;;;;;;6.04;56.04;100636.91;5064858;28;20032;-76
2021/03/25 08:26:18;;;;;;;83.00;25.70;;;;;;;6.57;56.29;100631.03;5056759;28;20720;-76
2021/03/25 08:28:59;;;;;;;48.33;15.50;;;;;;;6.52;55.72;100630.19;5086114;28;20023;-76
2021/03/25 08:31:29;;;;;;;30.33;11.02;;;;;;;6.07;56.19;100624.31;5068224;28;20096;-76
2021/03/25 08:34:20;;;;;;;20.50;9.65;;;;;;;6.43;56.43;100623.47;5086598;28;20024;-77
2021/03/25 08:37:25;;;;;;;39.75;17.05;;;;;;;6.42;57.14;100628.53;5067792;28;20066;-75
2021/03/25 08:39:56;;;;;;;12.60;7.22;;;;;;;7.24;54.11;100631.69;5068307;28;20046;-77
2021/03/25 08:42:34;;;;;;;11.82;6.88;;;;;;;7.33;55.68;100641.78;5085210;28;20032;-76
2021/03/25 08:48:27;;;;;;;8.93;6.60;;;;;;;7.85;52.45;100631.38;5085097;28;20032;-75
2021/03/25 08:51:06;;;;;;;24.15;14.95;;;;;;;7.81;52.28;100633.91;5067048;28;20044;-76
2021/03/25 08:53:45;;;;;;;14.95;9.50;;;;;;;7.90;51.93;100624.56;5067426;28;20039;-76
2021/03/25 08:56:36;;;;;;;20.85;12.75;;;;;;;8.37;51.01;100614.13;5085540;28;20212;-78
2021/03/25 08:59:15;;;;;;;20.52;12.98;;;;;;;8.31;51.28;100601.50;5068260;28;20032;-76
2021/03/25 09:02:03;;;;;;;11.23;8.05;;;;;;;7.77;50.62;100612.00;5066402;28;20394;-75
2021/03/25 09:04:34;;;;;;;12.02;8.02;;;;;;;7.49;51.57;100631.56;5085185;28;20085;-76
2021/03/25 09:07:03;;;;;;;10.65;6.30;;;;;;;7.07;52.04;100631.78;5082050;28;20024;-74
2021/03/25 09:09:32;;;;;;;7.47;5.70;;;;;;;8.42;50.89;100630.09;5078365;28;20717;-75
2021/03/25 09:12:01;;;;;;;10.57;7.93;;;;;;;9.06;48.68;100630.31;5063715;28;20044;-74
2021/03/25 09:14:29;;;;;;;9.73;6.68;;;;;;;9.00;48.03;100625.28;5074697;28;20032;-76
2021/03/25 09:17:08;;;;;;;7.55;5.80;;;;;;;9.49;47.47;100617.91;5087130;28;20028;-74
2021/03/25 09:19:46;;;;;;;13.75;9.52;;;;;;;8.46;49.36;100626.69;5104357;28;20389;-76
2021/03/25 09:22:34;;;;;;;9.75;6.70;;;;;;;9.16;48.06;100623.41;5087106;28;20024;-75
2021/03/25 09:25:22;;;;;;;9.95;6.57;;;;;;;8.97;47.91;100624.50;5077856;28;20053;-76
2021/03/25 09:28:04;;;;;;;7.80;6.25;;;;;;;8.08;50.35;100622.78;5067089;28;20458;-75
2021/03/25 09:30:42;;;;;;;8.30;6.28;;;;;;;7.52;52.11;100618.91;5068152;28;20025;-75
2021/03/25 09:33:41;;;;;;;9.15;6.55;;;;;;;8.23;50.72;100615.91;5067713;28;20429;-74
2021/03/25 09:36:34;;;;;;;10.65;6.75;;;;;;;8.21;52.58;100616.75;5057612;28;20033;-74
2021/03/25 09:39:00;;;;;;;8.57;6.25;;;;;;;7.01;51.33;100614.91;5047488;28;20076;-73
2021/03/25 09:41:29;;;;;;;12.23;6.90;;;;;;;7.87;50.47;100623.75;5046979;28;20503;-72
2021/03/25 09:44:10;;;;;;;8.30;5.95;;;;;;;7.59;51.67;100615.50;5047360;28;20036;-77
2021/03/25 09:46:39;;;;;;;28.30;15.70;;;;;;;7.25;52.04;100610.63;5049037;28;20627;-75
2021/03/25 09:49:32;;;;;;;34.85;17.85;;;;;;;7.40;51.40;100615.59;5048032;28;20037;-75
2021/03/25 09:52:08;;;;;;;16.10;9.57;;;;;;;8.03;50.04;100611.81;5081583;28;20029;-76
2021/03/25 09:54:46;;;;;;;16.35;10.27;;;;;;;7.78;51.72;100614.53;5048159;28;20037;-75
2021/03/25 09:57:37;;;;;;;12.15;9.02;;;;;;;7.45;50.49;100614.72;5080873;28;20029;-76
2021/03/25 10:00:18;;;;;;;9.50;7.25;;;;;;;7.45;52.00;100622.31;4692755;28;10000319;-77
2021/03/25 10:02:51;;;;;;;14.38;8.93;;;;;;;7.10;52.45;100619.09;5068127;28;20170;-77
2021/03/25 10:05:20;;;;;;;11.95;9.32;;;;;;;7.03;52.70;100614.94;5069381;28;20428;-77
2021/03/25 10:07:48;;;;;;;9.60;7.75;;;;;;;7.31;53.53;100615.66;5068064;28;20063;-74
2021/03/25 10:10:44;;;;;;;11.70;8.38;;;;;;;7.19;52.55;100621.59;5068222;28;20493;-77
2021/03/25 10:13:12;;;;;;;13.98;8.65;;;;;;;7.47;52.09;100624.81;5067533;28;20483;-77
2021/03/25 10:15:56;;;;;;;11.95;7.82;;;;;;;7.51;52.70;100629.03;5069090;28;20429;-76
2021/03/25 10:18:24;;;;;;;10.05;7.20;;;;;;;8.37;49.98;100625.94;5069540;28;20028;-75
2021/03/25 10:21:09;;;;;;;8.70;7.00;;;;;;;8.10;49.85;100632.00;5068402;28;20028;-75
2021/03/25 10:23:51;;;;;;;10.65;7.75;;;;;;;7.52;51.89;100625.66;5067883;28;20078;-75
2021/03/25 10:26:35;;;;;;;12.27;8.73;;;;;;;7.81;51.28;100627.16;5068449;28;20056;-76
2021/03/25 10:29:12;;;;;;;10.07;7.93;;;;;;;7.23;51.44;100582.78;5068571;28;20520;-76
2021/03/25 10:31:38;;;;;;;12.57;8.57;;;;;;;7.40;52.01;100626.56;5068640;28;20067;-75
2021/03/25 10:34:32;;;;;;;13.20;9.30;;;;;;;7.89;51.26;100627.97;5069465;28;20056;-75
2021/03/25 10:37:07;;;;;;;9.27;6.10;;;;;;;8.15;50.18;100621.84;5067179;28;20508;-75
2021/03/25 10:39:43;;;;;;;13.18;7.60;;;;;;;8.12;50.17;100611.78;5068426;28;20036;-76
2021/03/25 10:42:26;;;;;;;9.50;6.80;;;;;;;7.32;52.13;100627.44;5056102;28;20036;-77
2021/03/25 10:44:57;;;;;;;10.43;7.65;;;;;;;7.76;52.68;100612.88;5047323;28;20033;-77
2021/03/25 10:47:30;;;;;;;11.47;8.07;;;;;;;7.47;54.75;100637.47;5047619;28;20029;-75
2021/03/25 10:50:01;;;;;;;26.08;12.90;;;;;;;7.17;56.71;100637.63;5046762;28;20029;-75
2021/03/25 10:52:36;;;;;;;19.35;11.20;;;;;;;7.36;57.97;100640.06;5046865;28;20025;-75
2021/03/25 10:55:29;;;;;;;12.52;7.55;;;;;;;7.42;56.52;100639.19;5047119;28;20134;-75
2021/03/25 10:58:01;;;;;;;25.88;14.68;;;;;;;7.82;55.54;100628.03;5045198;28;20040;-77
2021/03/25 11:00:34;;;;;;;14.55;9.25;;;;;;;7.13;53.94;100630.91;5047963;28;20039;-77
2021/03/25 11:03:18;;;;;;;12.27;8.43;;;;;;;6.88;54.50;100645.28;5039156;28;20415;-80
2021/03/25 11:06:07;;;;;;;14.43;8.77;;;;;;;7.20;54.29;100643.50;5026306;28;20413;-77
2021/03/25 11:08:38;;;;;;;18.20;9.18;;;;;;;8.21;52.95;100635.31;5026196;28;20808;-76
2021/03/25 11:11:07;;;;;;;;;;;;;;;7.36;53.22;100639.22;5027449;28;20100;-77
2021/03/25 11:13:41;;;;;;;6.90;5.07;;;;;;;7.43;52.98;100621.47;5026915;28;19974;-77
2021/03/25 11:16:19;;;;;;;8.68;6.28;;;;;;;7.80;51.72;100637.31;5028194;28;20021;-75
2021/03/25 11:19:23;;;;;;;8.43;5.60;;;;;;;7.90;53.04;100627.09;5030036;28;20029;-76
2021/03/25 11:25:21;;;;;;;6.57;4.55;;;;;;;7.57;53.32;100639.97;5044955;28;20110;-77
2021/03/25 11:28:47;;;;;;;9.40;5.53;;;;;;;7.81;53.07;100637.28;5071635;28;20113;-77
2021/03/25 11:34:50;;;;;;;8.75;5.82;;;;;;;8.30;51.10;100632.75;5073415;28;20036;-78
2021/03/25 11:41:09;;;;;;;12.93;7.40;;;;;;;8.32;51.87;100627.69;5073039;28;20086;-77
2021/03/25 11:46:56;;;;;;;6.85;4.80;;;;;;;8.27;51.06;100629.41;5073109;28;20101;-78
2021/03/25 11:49:24;;;;;;;11.30;7.38;;;;;;;8.57;50.98;100622.38;5071391;28;20234;-79
2021/03/25 11:55:20;;;;;;;7.75;5.50;;;;;;;8.18;50.38;100620.13;5072924;28;20082;-78
2021/03/25 11:58:38;;;;;;;9.35;6.55;;;;;;;9.49;48.75;100630.59;5070930;28;20048;-77
2021/03/25 12:04:27;;;;;;;6.35;5.28;;;;;;;9.23;48.79;100640.25;5072379;28;20051;-78
2021/03/25 12:07:13;;;;;;;6.25;4.70;;;;;;;8.36;48.74;100594.69;5070838;28;20038;-77
2021/03/25 12:10:13;;;;;;;8.07;5.75;;;;;;;9.15;48.82;100629.38;5072132;28;20070;-77
2021/03/25 12:13:17;;;;;;;9.15;6.57;;;;;;;9.65;47.26;100636.34;5070875;28;20032;-77
2021/03/25 12:15:48;;;;;;;9.70;6.20;;;;;;;9.54;47.13;100629.72;5051494;28;20037;-77
2021/03/25 12:18:22;;;;;;;8.98;6.15;;;;;;;8.92;47.50;100616.94;4714708;28;9999613;-78
2021/03/25 12:20:48;;;;;;;10.02;7.07;;;;;;;8.91;48.21;100634.72;5065361;28;20037;-79
2021/03/25 12:23:19;;;;;;;11.68;7.05;;;;;;;9.15;46.89;100626.84;5065069;28;20512;-81
2021/03/25 12:25:47;;;;;;;9.68;6.78;;;;;;;8.66;46.85;100622.28;5064196;28;20056;-75
2021/03/25 12:28:15;;;;;;;7.70;5.85;;;;;;;8.73;47.04;100628.13;5063600;28;20060;-75
2021/03/25 12:30:41;;;;;;;6.78;5.07;;;;;;;8.78;48.30;100623.84;5066298;28;20035;-77
2021/03/25 12:33:07;;;;;;;6.93;5.32;;;;;;;8.77;48.08;100616.25;5064695;28;20135;-75
2021/03/25 12:35:32;;;;;;;9.20;6.30;;;;;;;8.49;48.86;100619.06;5064877;28;20040;-77
2021/03/25 12:37:58;;;;;;;8.50;6.07;;;;;;;8.85;49.83;100622.09;5064523;28;20110;-77
2021/03/25 12:40:25;;;;;;;13.40;7.90;;;;;;;8.94;49.25;100627.91;5065331;28;20028;-80